sensor_id;sensor_type;location;lat;lon;timestamp;pressure;altitude;pressure_sealevel;temperature;humidity
23229;BME280;11783;50.350;6.576;2023-08-20T00:02:15;96762.88;;;17.69;100.00
23229;BME280;11783;50.350;6.576;2023-08-20T00:04:45;96765.00;;;17.67;100.00
23229;BME280;11783;50.350;6.576;2023-08-20T00:07:11;96759.88;;;17.65;100.00
23229;BME280;11783;50.350;6.576;2023-08-20T00:09:37;96760.69;;;17.66;100.00
23229;BME280;11783;50.350;6.576;2023-08-20T00:12:02;96758.56;;;17.63;100.00
23229;BME280;11783;50.350;6.576;2023-08-20T00:14:57;96764.75;;;17.58;100.00
23229;BME280;11783;50.350;6.576;2023-08-20T00:17:33;96761.53;;;17.56;100.00
23229;BME280;11783;50.350;6.576;2023-08-20T00:19:58;96756.72;;;17.53;100.00
23229;BME280;11783;50.350;6.576;2023-08-20T00:22:25;96760.22;;;17.43;100.00
23229;BME280;11783;50.350;6.576;2023-08-20T00:24:53;96752.72;;;17.40;100.00
23229;BME280;11783;50.350;6.576;2023-08-20T00:27:20;96758.66;;;17.37;100.00
23229;BME280;11783;50.350;6.576;2023-08-20T00:29:45;96758.13;;;17.30;100.00
23229;BME280;11783;50.350;6.576;2023-08-20T00:32:10;96766.19;;;17.30;100.00
23229;BME280;11783;50.350;6.576;2023-08-20T00:34:36;96762.97;;;17.33;100.00
23229;BME280;11783;50.350;6.576;2023-08-20T00:37:02;96774.25;;;17.30;100.00
23229;BME280;11783;50.350;6.576;2023-08-20T00:39:28;96764.03;;;17.27;100.00
23229;BME280;11783;50.350;6.576;2023-08-20T00:41:54;96769.94;;;17.24;100.00
23229;BME280;11783;50.350;6.576;2023-08-20T00:44:19;96771.84;;;17.23;100.00
23229;BME280;11783;50.350;6.576;2023-08-20T00:46:45;96776.16;;;17.19;100.00
23229;BME280;11783;50.350;6.576;2023-08-20T00:49:10;96782.59;;;17.18;100.00
23229;BME280;11783;50.350;6.576;2023-08-20T00:51:36;96790.94;;;17.12;100.00
23229;BME280;11783;50.350;6.576;2023-08-20T00:54:02;96794.94;;;17.09;100.00
23229;BME280;11783;50.350;6.576;2023-08-20T00:56:28;96798.97;;;17.07;100.00
23229;BME280;11783;50.350;6.576;2023-08-20T00:58:54;96796.56;;;17.10;100.00
23229;BME280;11783;50.350;6.576;2023-08-20T01:01:21;96796.84;;;17.14;100.00
23229;BME280;11783;50.350;6.576;2023-08-20T01:03:47;96798.44;;;17.10;100.00
23229;BME280;11783;50.350;6.576;2023-08-20T01:08:47;96783.94;;;17.06;100.00
23229;BME280;11783;50.350;6.576;2023-08-20T01:11:25;96793.88;;;17.05;100.00
23229;BME280;11783;50.350;6.576;2023-08-20T01:13:54;96787.44;;;17.06;100.00
23229;BME280;11783;50.350;6.576;2023-08-20T01:16:20;96789.88;;;16.92;100.00
23229;BME280;11783;50.350;6.576;2023-08-20T01:18:45;96782.91;;;16.97;100.00
23229;BME280;11783;50.350;6.576;2023-08-20T01:21:24;96779.69;;;16.94;100.00
23229;BME280;11783;50.350;6.576;2023-08-20T01:24:05;96787.19;;;16.92;100.00
23229;BME280;11783;50.350;6.576;2023-08-20T01:26:47;96785.56;;;16.91;100.00
23229;BME280;11783;50.350;6.576;2023-08-20T01:29:14;96783.69;;;16.82;100.00
23229;BME280;11783;50.350;6.576;2023-08-20T01:31:40;96781.28;;;16.80;100.00
23229;BME280;11783;50.350;6.576;2023-08-20T01:34:06;96785.03;;;16.84;100.00
23229;BME280;11783;50.350;6.576;2023-08-20T01:36:31;96775.09;;;16.85;100.00
23229;BME280;11783;50.350;6.576;2023-08-20T01:38:56;96767.31;;;16.88;100.00
23229;BME280;11783;50.350;6.576;2023-08-20T01:41:22;96775.38;;;16.83;100.00
23229;BME280;11783;50.350;6.576;2023-08-20T01:43:47;96765.47;;;16.79;100.00
23229;BME280;11783;50.350;6.576;2023-08-20T01:46:12;96758.75;;;16.76;100.00
23229;BME280;11783;50.350;6.576;2023-08-20T01:48:38;96761.94;;;16.73;100.00
23229;BME280;11783;50.350;6.576;2023-08-20T01:51:03;96761.97;;;16.78;100.00
23229;BME280;11783;50.350;6.576;2023-08-20T01:53:28;96754.72;;;16.74;100.00
23229;BME280;11783;50.350;6.576;2023-08-20T01:55:54;96764.88;;;16.61;100.00
23229;BME280;11783;50.350;6.576;2023-08-20T01:58:19;96770.53;;;16.55;100.00
23229;BME280;11783;50.350;6.576;2023-08-20T02:00:45;96772.38;;;16.49;100.00
23229;BME280;11783;50.350;6.576;2023-08-20T02:03:10;96773.19;;;16.50;100.00
23229;BME280;11783;50.350;6.576;2023-08-20T02:05:35;96768.88;;;16.49;100.00
23229;BME280;11783;50.350;6.576;2023-08-20T02:08:01;96767.28;;;16.53;100.00
23229;BME280;11783;50.350;6.576;2023-08-20T02:10:27;96770.53;;;16.55;100.00
23229;BME280;11783;50.350;6.576;2023-08-20T02:12:52;96771.03;;;16.52;100.00
23229;BME280;11783;50.350;6.576;2023-08-20T02:15:17;96774.25;;;16.49;100.00
23229;BME280;11783;50.350;6.576;2023-08-20T02:17:43;96764.59;;;16.48;100.00
23229;BME280;11783;50.350;6.576;2023-08-20T02:20:08;96774.78;;;16.46;100.00
23229;BME280;11783;50.350;6.576;2023-08-20T02:22:35;96771.03;;;16.42;100.00
23229;BME280;11783;50.350;6.576;2023-08-20T02:25:01;96767.81;;;16.40;100.00
23229;BME280;11783;50.350;6.576;2023-08-20T02:27:26;96772.09;;;16.30;100.00
23229;BME280;11783;50.350;6.576;2023-08-20T02:29:52;96778.25;;;16.31;100.00
23229;BME280;11783;50.350;6.576;2023-08-20T02:32:17;96773.69;;;16.26;100.00
23229;BME280;11783;50.350;6.576;2023-08-20T02:34:43;96775.84;;;16.19;100.00
23229;BME280;11783;50.350;6.576;2023-08-20T02:37:08;96776.09;;;16.23;100.00
23229;BME280;11783;50.350;6.576;2023-08-20T02:39:34;96778.25;;;16.21;100.00
23229;BME280;11783;50.350;6.576;2023-08-20T02:41:59;96783.88;;;16.19;100.00
23229;BME280;11783;50.350;6.576;2023-08-20T02:44:24;96780.38;;;16.14;100.00
23229;BME280;11783;50.350;6.576;2023-08-20T02:46:50;96787.59;;;16.08;100.00
23229;BME280;11783;50.350;6.576;2023-08-20T02:49:15;96788.94;;;16.11;100.00
23229;BME280;11783;50.350;6.576;2023-08-20T02:51:42;96796.19;;;16.10;100.00
23229;BME280;11783;50.350;6.576;2023-08-20T02:54:08;96792.97;;;16.08;100.00
23229;BME280;11783;50.350;6.576;2023-08-20T02:56:33;96794.81;;;16.02;100.00
23229;BME280;11783;50.350;6.576;2023-08-20T02:58:58;96800.47;;;16.06;100.00
23229;BME280;11783;50.350;6.576;2023-08-20T03:01:25;96792.41;;;16.06;100.00
23229;BME280;11783;50.350;6.576;2023-08-20T03:03:51;96799.94;;;16.04;100.00
23229;BME280;11783;50.350;6.576;2023-08-20T03:06:16;96804.75;;;16.07;100.00
23229;BME280;11783;50.350;6.576;2023-08-20T03:08:42;96804.50;;;16.09;100.00
23229;BME280;11783;50.350;6.576;2023-08-20T03:11:07;96805.00;;;16.00;100.00
23229;BME280;11783;50.350;6.576;2023-08-20T03:13:33;96796.66;;;15.97;100.00
23229;BME280;11783;50.350;6.576;2023-08-20T03:15:58;96793.97;;;15.87;100.00
23229;BME280;11783;50.350;6.576;2023-08-20T03:18:23;96795.81;;;15.81;100.00
23229;BME280;11783;50.350;6.576;2023-08-20T03:20:49;96798.19;;;15.67;100.00
23229;BME280;11783;50.350;6.576;2023-08-20T03:23:14;96806.13;;;15.57;100.00
23229;BME280;11783;50.350;6.576;2023-08-20T03:25:39;96802.94;;;15.60;100.00
23229;BME280;11783;50.350;6.576;2023-08-20T03:28:05;96799.19;;;15.61;100.00
23229;BME280;11783;50.350;6.576;2023-08-20T03:30:30;96808.31;;;15.60;100.00
23229;BME280;11783;50.350;6.576;2023-08-20T03:32:56;96810.75;;;15.62;100.00
23229;BME280;11783;50.350;6.576;2023-08-20T03:35:22;96807.28;;;15.66;100.00
23229;BME280;11783;50.350;6.576;2023-08-20T03:37:47;96805.97;;;15.74;100.00
23229;BME280;11783;50.350;6.576;2023-08-20T03:40:12;96801.69;;;15.73;100.00
23229;BME280;11783;50.350;6.576;2023-08-20T03:42:38;96799.78;;;15.63;100.00
23229;BME280;11783;50.350;6.576;2023-08-20T03:45:04;96801.38;;;15.64;100.00
23229;BME280;11783;50.350;6.576;2023-08-20T03:47:29;96804.88;;;15.65;100.00
23229;BME280;11783;50.350;6.576;2023-08-20T03:49:55;96807.22;;;15.61;100.00
23229;BME280;11783;50.350;6.576;2023-08-20T03:52:20;96817.63;;;15.53;100.00
23229;BME280;11783;50.350;6.576;2023-08-20T03:54:45;96814.63;;;15.44;100.00
23229;BME280;11783;50.350;6.576;2023-08-20T03:57:11;96812.53;;;15.51;100.00
23229;BME280;11783;50.350;6.576;2023-08-20T03:59:36;96808.25;;;15.55;100.00
23229;BME280;11783;50.350;6.576;2023-08-20T04:02:02;96809.69;;;15.63;100.00
23229;BME280;11783;50.350;6.576;2023-08-20T04:04:27;96820.59;;;15.56;100.00
23229;BME280;11783;50.350;6.576;2023-08-20T04:06:53;96823.53;;;15.55;100.00
23229;BME280;11783;50.350;6.576;2023-08-20T04:09:18;96822.97;;;15.53;100.00
23229;BME280;11783;50.350;6.576;2023-08-20T04:11:44;96820.31;;;15.53;100.00
23229;BME280;11783;50.350;6.576;2023-08-20T04:14:09;96835.34;;;15.59;100.00
23229;BME280;11783;50.350;6.576;2023-08-20T04:16:34;96836.22;;;15.64;100.00
23229;BME280;11783;50.350;6.576;2023-08-20T04:19:00;96843.72;;;15.67;100.00
23229;BME280;11783;50.350;6.576;2023-08-20T04:21:25;96839.22;;;15.78;100.00
23229;BME280;11783;50.350;6.576;2023-08-20T04:23:51;96841.94;;;15.83;100.00
23229;BME280;11783;50.350;6.576;2023-08-20T04:26:16;96834.44;;;15.85;100.00
23229;BME280;11783;50.350;6.576;2023-08-20T04:28:41;96841.63;;;15.80;100.00
23229;BME280;11783;50.350;6.576;2023-08-20T04:31:07;96840.34;;;15.87;100.00
23229;BME280;11783;50.350;6.576;2023-08-20T04:33:32;96839.00;;;15.90;100.00
23229;BME280;11783;50.350;6.576;2023-08-20T04:35:57;96833.66;;;15.90;100.00
23229;BME280;11783;50.350;6.576;2023-08-20T04:38:23;96843.03;;;15.92;100.00
23229;BME280;11783;50.350;6.576;2023-08-20T04:40:48;96836.88;;;15.97;100.00
23229;BME280;11783;50.350;6.576;2023-08-20T04:43:15;96836.63;;;15.98;100.00
23229;BME280;11783;50.350;6.576;2023-08-20T04:45:41;96840.34;;;15.87;100.00
23229;BME280;11783;50.350;6.576;2023-08-20T04:48:06;96828.81;;;15.87;100.00
23229;BME280;11783;50.350;6.576;2023-08-20T04:50:31;96839.25;;;15.83;100.00
23229;BME280;11783;50.350;6.576;2023-08-20T04:52:57;96852.91;;;15.82;100.00
23229;BME280;11783;50.350;6.576;2023-08-20T04:55:25;96850.19;;;15.77;100.00
23229;BME280;11783;50.350;6.576;2023-08-20T04:57:50;96855.06;;;15.85;100.00
23229;BME280;11783;50.350;6.576;2023-08-20T05:00:15;96848.13;;;15.89;100.00
23229;BME280;11783;50.350;6.576;2023-08-20T05:02:41;96849.72;;;15.85;100.00
23229;BME280;11783;50.350;6.576;2023-08-20T05:05:06;96850.25;;;15.82;100.00
23229;BME280;11783;50.350;6.576;2023-08-20T05:07:32;96851.00;;;15.77;100.00
23229;BME280;11783;50.350;6.576;2023-08-20T05:09:57;96858.50;;;15.80;100.00
23229;BME280;11783;50.350;6.576;2023-08-20T05:12:22;96847.59;;;15.92;100.00
23229;BME280;11783;50.350;6.576;2023-08-20T05:14:48;96856.97;;;15.94;100.00
23229;BME280;11783;50.350;6.576;2023-08-20T05:17:13;96855.63;;;15.92;100.00
23229;BME280;11783;50.350;6.576;2023-08-20T05:19:38;96861.00;;;15.92;100.00
23229;BME280;11783;50.350;6.576;2023-08-20T05:22:04;96854.03;;;15.96;100.00
23229;BME280;11783;50.350;6.576;2023-08-20T05:24:29;96852.69;;;15.98;100.00
23229;BME280;11783;50.350;6.576;2023-08-20T05:27:15;96847.13;;;16.05;100.00
23229;BME280;11783;50.350;6.576;2023-08-20T05:29:42;96842.31;;;16.12;100.00
23229;BME280;11783;50.350;6.576;2023-08-20T05:32:07;96849.28;;;16.13;100.00
23229;BME280;11783;50.350;6.576;2023-08-20T05:34:33;96858.66;;;16.16;100.00
23229;BME280;11783;50.350;6.576;2023-08-20T05:36:59;96850.41;;;16.27;100.00
23229;BME280;11783;50.350;6.576;2023-08-20T05:39:24;96847.44;;;16.24;100.00
23229;BME280;11783;50.350;6.576;2023-08-20T05:41:51;96850.94;;;16.24;100.00
23229;BME280;11783;50.350;6.576;2023-08-20T05:44:17;96847.19;;;16.25;100.00
23229;BME280;11783;50.350;6.576;2023-08-20T05:46:43;96854.44;;;16.30;100.00
23229;BME280;11783;50.350;6.576;2023-08-20T05:49:08;96860.06;;;16.33;100.00
23229;BME280;11783;50.350;6.576;2023-08-20T05:51:33;96859.84;;;16.40;100.00
23229;BME280;11783;50.350;6.576;2023-08-20T05:53:59;96866.28;;;16.44;100.00
23229;BME280;11783;50.350;6.576;2023-08-20T05:56:24;96860.13;;;16.49;100.00
23229;BME280;11783;50.350;6.576;2023-08-20T05:58:49;96859.31;;;16.53;100.00
23229;BME280;11783;50.350;6.576;2023-08-20T06:01:15;96870.09;;;16.63;100.00
23229;BME280;11783;50.350;6.576;2023-08-20T06:03:40;96869.59;;;16.77;100.00
23229;BME280;11783;50.350;6.576;2023-08-20T06:06:05;96868.78;;;16.86;100.00
23229;BME280;11783;50.350;6.576;2023-08-20T06:08:31;96862.63;;;16.96;100.00
23229;BME280;11783;50.350;6.576;2023-08-20T06:10:56;96862.88;;;17.10;100.00
23229;BME280;11783;50.350;6.576;2023-08-20T06:13:21;96864.53;;;17.16;100.00
23229;BME280;11783;50.350;6.576;2023-08-20T06:15:46;96866.66;;;17.24;100.00
23229;BME280;11783;50.350;6.576;2023-08-20T06:18:12;96862.38;;;17.33;100.00
23229;BME280;11783;50.350;6.576;2023-08-20T06:20:38;96870.13;;;17.40;100.00
23229;BME280;11783;50.350;6.576;2023-08-20T06:23:03;96875.78;;;17.43;100.00
23229;BME280;11783;50.350;6.576;2023-08-20T06:25:29;96865.56;;;17.45;100.00
23229;BME280;11783;50.350;6.576;2023-08-20T06:27:54;96868.53;;;17.39;100.00
23229;BME280;11783;50.350;6.576;2023-08-20T06:30:19;96867.72;;;17.38;100.00
23229;BME280;11783;50.350;6.576;2023-08-20T06:32:45;96876.31;;;17.45;100.00
23229;BME280;11783;50.350;6.576;2023-08-20T06:35:10;96867.44;;;17.50;100.00
23229;BME280;11783;50.350;6.576;2023-08-20T06:37:36;96864.47;;;17.56;100.00
23229;BME280;11783;50.350;6.576;2023-08-20T06:40:01;96872.78;;;17.60;100.00
23229;BME280;11783;50.350;6.576;2023-08-20T06:42:27;96863.09;;;17.64;100.00
23229;BME280;11783;50.350;6.576;2023-08-20T06:44:52;96858.03;;;17.68;100.00
23229;BME280;11783;50.350;6.576;2023-08-20T06:47:17;96862.59;;;17.72;100.00
23229;BME280;11783;50.350;6.576;2023-08-20T06:49:43;96867.16;;;17.77;100.00
23229;BME280;11783;50.350;6.576;2023-08-20T06:52:08;96865.78;;;17.79;100.00
23229;BME280;11783;50.350;6.576;2023-08-20T06:54:34;96863.34;;;17.83;100.00
23229;BME280;11783;50.350;6.576;2023-08-20T06:56:59;96864.72;;;17.85;100.00
23229;BME280;11783;50.350;6.576;2023-08-20T06:59:25;96872.47;;;17.92;100.00
23229;BME280;11783;50.350;6.576;2023-08-20T07:01:50;96867.34;;;18.01;100.00
23229;BME280;11783;50.350;6.576;2023-08-20T07:04:15;96869.19;;;18.10;100.00
23229;BME280;11783;50.350;6.576;2023-08-20T07:06:41;96874.56;;;18.10;100.00
23229;BME280;11783;50.350;6.576;2023-08-20T07:09:07;96873.47;;;18.16;100.00
23229;BME280;11783;50.350;6.576;2023-08-20T07:11:32;96873.44;;;18.22;100.00
23229;BME280;11783;50.350;6.576;2023-08-20T07:13:57;96871.28;;;18.29;100.00
23229;BME280;11783;50.350;6.576;2023-08-20T07:16:22;96872.56;;;18.36;100.00
23229;BME280;11783;50.350;6.576;2023-08-20T07:18:48;96871.72;;;18.46;100.00
23229;BME280;11783;50.350;6.576;2023-08-20T07:21:13;96874.09;;;18.53;100.00
23229;BME280;11783;50.350;6.576;2023-08-20T07:23:38;96869.47;;;18.58;100.00
23229;BME280;11783;50.350;6.576;2023-08-20T07:26:08;96871.91;;;18.65;100.00
23229;BME280;11783;50.350;6.576;2023-08-20T07:28:34;96868.06;;;18.76;100.00
23229;BME280;11783;50.350;6.576;2023-08-20T07:31:19;96874.25;;;18.82;100.00
23229;BME280;11783;50.350;6.576;2023-08-20T07:33:48;96871.41;;;19.02;100.00
23229;BME280;11783;50.350;6.576;2023-08-20T07:36:14;96866.31;;;19.29;100.00
23229;BME280;11783;50.350;6.576;2023-08-20T07:38:40;96863.81;;;19.38;100.00
23229;BME280;11783;50.350;6.576;2023-08-20T07:41:08;96867.13;;;19.30;100.00
23229;BME280;11783;50.350;6.576;2023-08-20T07:43:33;96869.78;;;19.35;100.00
23229;BME280;11783;50.350;6.576;2023-08-20T07:45:59;96867.72;;;19.51;100.00
23229;BME280;11783;50.350;6.576;2023-08-20T07:48:24;96866.06;;;19.60;100.00
23229;BME280;11783;50.350;6.576;2023-08-20T07:50:49;96867.03;;;19.69;100.00
23229;BME280;11783;50.350;6.576;2023-08-20T07:53:15;96875.84;;;19.80;100.00
23229;BME280;11783;50.350;6.576;2023-08-20T07:55:40;96867.31;;;19.96;100.00
23229;BME280;11783;50.350;6.576;2023-08-20T07:58:05;96865.16;;;20.17;100.00
23229;BME280;11783;50.350;6.576;2023-08-20T08:00:31;96864.84;;;20.43;100.00
23229;BME280;11783;50.350;6.576;2023-08-20T08:02:56;96861.63;;;20.65;100.00
23229;BME280;11783;50.350;6.576;2023-08-20T08:05:22;96860.63;;;20.93;100.00
23229;BME280;11783;50.350;6.576;2023-08-20T08:07:47;96869.13;;;21.19;100.00
23229;BME280;11783;50.350;6.576;2023-08-20T08:10:12;96871.03;;;21.37;100.00
23229;BME280;11783;50.350;6.576;2023-08-20T08:12:37;96874.47;;;21.57;100.00
23229;BME280;11783;50.350;6.576;2023-08-20T08:15:03;96877.34;;;21.79;100.00
23229;BME280;11783;50.350;6.576;2023-08-20T08:17:28;96871.66;;;21.94;100.00
23229;BME280;11783;50.350;6.576;2023-08-20T08:19:54;96884.03;;;22.14;100.00
23229;BME280;11783;50.350;6.576;2023-08-20T08:22:20;96879.78;;;22.35;100.00
23229;BME280;11783;50.350;6.576;2023-08-20T08:24:45;96879.06;;;22.57;100.00
23229;BME280;11783;50.350;6.576;2023-08-20T08:27:11;96877.25;;;22.53;100.00
23229;BME280;11783;50.350;6.576;2023-08-20T08:29:36;96878.50;;;22.83;100.00
23229;BME280;11783;50.350;6.576;2023-08-20T08:32:02;96878.16;;;22.98;100.00
23229;BME280;11783;50.350;6.576;2023-08-20T08:34:27;96881.69;;;23.21;100.00
23229;BME280;11783;50.350;6.576;2023-08-20T08:36:52;96884.97;;;23.32;100.00
23229;BME280;11783;50.350;6.576;2023-08-20T08:39:18;96877.28;;;23.25;100.00
23229;BME280;11783;50.350;6.576;2023-08-20T08:41:44;96882.91;;;23.37;100.00
23229;BME280;11783;50.350;6.576;2023-08-20T08:44:11;96876.91;;;23.63;100.00
23229;BME280;11783;50.350;6.576;2023-08-20T08:46:38;96877.50;;;23.91;100.00
23229;BME280;11783;50.350;6.576;2023-08-20T08:49:04;96879.50;;;24.16;100.00
23229;BME280;11783;50.350;6.576;2023-08-20T08:51:30;96889.34;;;24.34;91.76
23229;BME280;11783;50.350;6.576;2023-08-20T08:53:56;96892.44;;;24.41;89.74
23229;BME280;11783;50.350;6.576;2023-08-20T08:56:21;96885.06;;;24.42;89.76
23229;BME280;11783;50.350;6.576;2023-08-20T08:58:47;96896.63;;;24.56;90.34
23229;BME280;11783;50.350;6.576;2023-08-20T09:01:13;96889.44;;;24.60;86.00
23229;BME280;11783;50.350;6.576;2023-08-20T09:03:38;96895.22;;;24.85;89.40
23229;BME280;11783;50.350;6.576;2023-08-20T09:06:08;96894.59;;;25.05;89.02
23229;BME280;11783;50.350;6.576;2023-08-20T09:08:34;96897.03;;;25.15;80.34
23229;BME280;11783;50.350;6.576;2023-08-20T09:11:00;96892.69;;;25.31;83.32
23229;BME280;11783;50.350;6.576;2023-08-20T09:13:37;96896.22;;;25.32;84.27
23229;BME280;11783;50.350;6.576;2023-08-20T09:16:10;96903.25;;;25.68;81.07
23229;BME280;11783;50.350;6.576;2023-08-20T09:21:09;96892.72;;;25.95;77.14
23229;BME280;11783;50.350;6.576;2023-08-20T09:23:35;96901.81;;;26.08;79.95
23229;BME280;11783;50.350;6.576;2023-08-20T09:26:02;96900.91;;;26.34;71.68
23229;BME280;11783;50.350;6.576;2023-08-20T09:28:28;96903.13;;;26.40;76.05
23229;BME280;11783;50.350;6.576;2023-08-20T09:30:57;96898.81;;;26.39;76.36
23229;BME280;11783;50.350;6.576;2023-08-20T09:33:23;96902.34;;;26.40;71.68
23229;BME280;11783;50.350;6.576;2023-08-20T09:35:50;96901.19;;;26.49;71.57
23229;BME280;11783;50.350;6.576;2023-08-20T09:38:19;96901.44;;;26.56;74.39
23229;BME280;11783;50.350;6.576;2023-08-20T09:40:53;96897.13;;;26.55;71.79
23229;BME280;11783;50.350;6.576;2023-08-20T09:43:24;96900.81;;;26.60;71.02
23229;BME280;11783;50.350;6.576;2023-08-20T09:45:54;96907.19;;;26.64;72.72
23229;BME280;11783;50.350;6.576;2023-08-20T09:48:20;96907.09;;;26.81;76.02
23229;BME280;11783;50.350;6.576;2023-08-20T09:50:47;96891.91;;;27.01;73.42
23229;BME280;11783;50.350;6.576;2023-08-20T09:56:49;96894.53;;;27.09;69.93
23229;BME280;11783;50.350;6.576;2023-08-20T09:58:48;96892.34;;;27.03;70.73
23229;BME280;11783;50.350;6.576;2023-08-20T10:01:15;96894.44;;;26.76;70.34
23229;BME280;11783;50.350;6.576;2023-08-20T10:03:41;96892.31;;;26.82;73.85
23229;BME280;11783;50.350;6.576;2023-08-20T10:06:08;96889.19;;;26.92;74.46
23229;BME280;11783;50.350;6.576;2023-08-20T10:08:34;96888.88;;;27.14;65.78
23229;BME280;11783;50.350;6.576;2023-08-20T10:11:00;96890.25;;;27.41;62.94
23229;BME280;11783;50.350;6.576;2023-08-20T10:13:25;96888.22;;;27.51;66.70
23229;BME280;11783;50.350;6.576;2023-08-20T10:15:52;96884.56;;;27.46;63.06
23229;BME280;11783;50.350;6.576;2023-08-20T10:18:19;96885.38;;;27.47;62.42
23229;BME280;11783;50.350;6.576;2023-08-20T10:20:45;96886.91;;;27.57;62.17
23229;BME280;11783;50.350;6.576;2023-08-20T10:23:12;96893.50;;;27.56;61.16
23229;BME280;11783;50.350;6.576;2023-08-20T10:25:41;96888.03;;;27.56;63.07
23229;BME280;11783;50.350;6.576;2023-08-20T10:28:26;96891.41;;;27.73;66.76
23229;BME280;11783;50.350;6.576;2023-08-20T10:31:25;96891.81;;;27.96;67.49
23229;BME280;11783;50.350;6.576;2023-08-20T10:33:56;96894.53;;;27.96;60.95
23229;BME280;11783;50.350;6.576;2023-08-20T10:36:23;96901.47;;;28.06;60.47
23229;BME280;11783;50.350;6.576;2023-08-20T10:38:54;96891.75;;;28.29;65.73
23229;BME280;11783;50.350;6.576;2023-08-20T10:41:28;96893.88;;;28.60;59.40
23229;BME280;11783;50.350;6.576;2023-08-20T10:43:57;96893.97;;;28.76;63.30
23229;BME280;11783;50.350;6.576;2023-08-20T10:46:24;96896.28;;;28.86;61.10
23229;BME280;11783;50.350;6.576;2023-08-20T10:48:55;96894.31;;;28.99;57.48
23229;BME280;11783;50.350;6.576;2023-08-20T10:51:28;96894.88;;;29.05;59.60
23229;BME280;11783;50.350;6.576;2023-08-20T10:59:08;96885.03;;;28.51;61.88
23229;BME280;11783;50.350;6.576;2023-08-20T11:01:34;96890.34;;;28.72;61.14
23229;BME280;11783;50.350;6.576;2023-08-20T11:04:00;96886.25;;;28.90;63.11
23229;BME280;11783;50.350;6.576;2023-08-20T11:06:31;96890.66;;;29.07;59.59
23229;BME280;11783;50.350;6.576;2023-08-20T11:08:57;96892.53;;;29.19;60.61
23229;BME280;11783;50.350;6.576;2023-08-20T11:11:23;96889.78;;;29.19;58.06
23229;BME280;11783;50.350;6.576;2023-08-20T11:13:48;96888.56;;;29.16;59.52
23229;BME280;11783;50.350;6.576;2023-08-20T11:16:14;96894.53;;;29.06;62.08
23229;BME280;11783;50.350;6.576;2023-08-20T11:18:39;96895.84;;;29.24;62.74
23229;BME280;11783;50.350;6.576;2023-08-20T11:21:04;96892.31;;;29.24;56.30
23229;BME280;11783;50.350;6.576;2023-08-20T11:23:30;96894.84;;;29.45;57.67
23229;BME280;11783;50.350;6.576;2023-08-20T11:25:57;96888.25;;;29.46;60.52
23229;BME280;11783;50.350;6.576;2023-08-20T11:28:22;96891.53;;;29.51;62.57
23229;BME280;11783;50.350;6.576;2023-08-20T11:30:49;96886.84;;;29.52;59.75
23229;BME280;11783;50.350;6.576;2023-08-20T11:33:16;96885.47;;;29.18;54.73
23229;BME280;11783;50.350;6.576;2023-08-20T11:35:42;96884.72;;;29.45;52.28
23229;BME280;11783;50.350;6.576;2023-08-20T11:38:09;96892.88;;;29.58;52.82
23229;BME280;11783;50.350;6.576;2023-08-20T11:40:35;96888.47;;;29.69;52.74
23229;BME280;11783;50.350;6.576;2023-08-20T11:43:01;96889.91;;;29.78;55.98
23229;BME280;11783;50.350;6.576;2023-08-20T11:45:26;96886.97;;;29.43;55.13
23229;BME280;11783;50.350;6.576;2023-08-20T11:47:56;96878.63;;;29.52;49.39
23229;BME280;11783;50.350;6.576;2023-08-20T11:50:23;96881.59;;;29.59;52.67
23229;BME280;11783;50.350;6.576;2023-08-20T11:52:48;96890.69;;;28.83;48.50
23229;BME280;11783;50.350;6.576;2023-08-20T11:55:13;96889.34;;;29.17;48.19
23229;BME280;11783;50.350;6.576;2023-08-20T11:57:39;96883.66;;;29.22;48.34
23229;BME280;11783;50.350;6.576;2023-08-20T12:00:06;96878.19;;;29.50;50.83
23229;BME280;11783;50.350;6.576;2023-08-20T12:02:40;96885.31;;;29.39;48.12
23229;BME280;11783;50.350;6.576;2023-08-20T12:05:06;96885.38;;;29.14;51.72
23229;BME280;11783;50.350;6.576;2023-08-20T12:07:32;96885.19;;;29.35;50.54
23229;BME280;11783;50.350;6.576;2023-08-20T12:09:57;96881.47;;;29.55;46.28
23229;BME280;11783;50.350;6.576;2023-08-20T12:12:22;96881.22;;;29.61;49.98
23229;BME280;11783;50.350;6.576;2023-08-20T12:14:49;96872.81;;;29.53;50.07
23229;BME280;11783;50.350;6.576;2023-08-20T12:17:18;96886.38;;;29.78;51.65
23229;BME280;11783;50.350;6.576;2023-08-20T12:19:44;96881.59;;;29.75;49.56
23229;BME280;11783;50.350;6.576;2023-08-20T12:22:09;96879.56;;;29.44;50.63
23229;BME280;11783;50.350;6.576;2023-08-20T12:24:34;96876.47;;;29.17;52.12
23229;BME280;11783;50.350;6.576;2023-08-20T12:27:00;96865.44;;;29.42;51.37
23229;BME280;11783;50.350;6.576;2023-08-20T12:29:25;96872.09;;;29.29;47.63
23229;BME280;11783;50.350;6.576;2023-08-20T12:31:50;96865.63;;;29.21;49.28
23229;BME280;11783;50.350;6.576;2023-08-20T12:34:16;96860.41;;;29.44;51.46
23229;BME280;11783;50.350;6.576;2023-08-20T12:36:41;96855.53;;;29.65;52.64
23229;BME280;11783;50.350;6.576;2023-08-20T12:39:06;96852.00;;;29.80;54.18
23229;BME280;11783;50.350;6.576;2023-08-20T12:41:33;96868.38;;;30.08;54.61
23229;BME280;11783;50.350;6.576;2023-08-20T12:43:58;96856.69;;;30.43;53.17
23229;BME280;11783;50.350;6.576;2023-08-20T12:46:23;96861.66;;;30.22;51.55
23229;BME280;11783;50.350;6.576;2023-08-20T12:48:49;96849.94;;;30.56;53.97
23229;BME280;11783;50.350;6.576;2023-08-20T12:51:15;96857.09;;;30.77;51.55
23229;BME280;11783;50.350;6.576;2023-08-20T12:53:42;96853.72;;;31.02;52.64
23229;BME280;11783;50.350;6.576;2023-08-20T12:56:08;96850.72;;;31.27;51.41
23229;BME280;11783;50.350;6.576;2023-08-20T12:58:33;96857.06;;;31.31;52.42
23229;BME280;11783;50.350;6.576;2023-08-20T13:00:58;96852.16;;;31.21;47.91
23229;BME280;11783;50.350;6.576;2023-08-20T13:03:24;96853.22;;;30.97;49.80